sensor_id;sensor_type;location;lat;lon;timestamp;temperature;humidity
25906;DHT22;13713;52.552;13.204;2024-02-21T00:00:54;16.50;99.90
25906;DHT22;13713;52.552;13.204;2024-02-21T00:03:20;16.50;99.90
25906;DHT22;13713;52.552;13.204;2024-02-21T00:05:46;16.50;99.90
25906;DHT22;13713;52.552;13.204;2024-02-21T00:08:11;16.50;99.90
25906;DHT22;13713;52.552;13.204;2024-02-21T00:10:37;16.40;99.90
25906;DHT22;13713;52.552;13.204;2024-02-21T00:13:03;16.40;99.90
25906;DHT22;13713;52.552;13.204;2024-02-21T00:15:28;16.40;99.90
25906;DHT22;13713;52.552;13.204;2024-02-21T00:17:54;16.40;99.90
25906;DHT22;13713;52.552;13.204;2024-02-21T00:20:20;16.50;99.90
25906;DHT22;13713;52.552;13.204;2024-02-21T00:22:46;16.40;99.90
25906;DHT22;13713;52.552;13.204;2024-02-21T00:25:11;16.50;99.90
25906;DHT22;13713;52.552;13.204;2024-02-21T00:27:38;16.40;99.90
25906;DHT22;13713;52.552;13.204;2024-02-21T00:30:04;16.40;99.90
25906;DHT22;13713;52.552;13.204;2024-02-21T00:32:30;16.40;99.90
25906;DHT22;13713;52.552;13.204;2024-02-21T00:34:57;16.50;99.90
25906;DHT22;13713;52.552;13.204;2024-02-21T00:37:23;16.40;99.90
25906;DHT22;13713;52.552;13.204;2024-02-21T00:39:48;16.40;99.90
25906;DHT22;13713;52.552;13.204;2024-02-21T00:42:14;16.40;99.90
25906;DHT22;13713;52.552;13.204;2024-02-21T00:44:40;16.40;99.90
25906;DHT22;13713;52.552;13.204;2024-02-21T00:47:05;16.40;99.90
25906;DHT22;13713;52.552;13.204;2024-02-21T00:49:31;16.40;99.90
25906;DHT22;13713;52.552;13.204;2024-02-21T00:51:56;16.40;99.90
25906;DHT22;13713;52.552;13.204;2024-02-21T00:54:22;16.40;99.90
25906;DHT22;13713;52.552;13.204;2024-02-21T00:56:48;16.30;99.90
25906;DHT22;13713;52.552;13.204;2024-02-21T00:59:14;16.30;99.90
25906;DHT22;13713;52.552;13.204;2024-02-21T01:01:39;16.30;99.90
25906;DHT22;13713;52.552;13.204;2024-02-21T01:04:09;16.20;99.90
25906;DHT22;13713;52.552;13.204;2024-02-21T01:06:34;16.30;99.90
25906;DHT22;13713;52.552;13.204;2024-02-21T01:09:00;16.20;99.90
25906;DHT22;13713;52.552;13.204;2024-02-21T01:11:26;16.40;99.90
25906;DHT22;13713;52.552;13.204;2024-02-21T01:13:51;16.40;99.90
25906;DHT22;13713;52.552;13.204;2024-02-21T01:16:17;16.30;99.90
25906;DHT22;13713;52.552;13.204;2024-02-21T01:18:43;16.30;99.90
25906;DHT22;13713;52.552;13.204;2024-02-21T01:21:08;16.30;99.90
25906;DHT22;13713;52.552;13.204;2024-02-21T01:23:36;16.40;99.90
25906;DHT22;13713;52.552;13.204;2024-02-21T01:26:03;16.30;99.90
25906;DHT22;13713;52.552;13.204;2024-02-21T01:28:29;16.30;99.90
25906;DHT22;13713;52.552;13.204;2024-02-21T01:30:56;16.30;99.90
25906;DHT22;13713;52.552;13.204;2024-02-21T01:33:22;16.40;99.90
25906;DHT22;13713;52.552;13.204;2024-02-21T01:35:48;16.30;99.90
25906;DHT22;13713;52.552;13.204;2024-02-21T01:38:14;16.20;99.90
25906;DHT22;13713;52.552;13.204;2024-02-21T01:40:40;16.20;99.90
25906;DHT22;13713;52.552;13.204;2024-02-21T01:43:15;16.20;99.90
25906;DHT22;13713;52.552;13.204;2024-02-21T01:45:41;16.20;99.90
25906;DHT22;13713;52.552;13.204;2024-02-21T01:48:07;16.20;99.90
25906;DHT22;13713;52.552;13.204;2024-02-21T01:50:33;16.20;99.90
25906;DHT22;13713;52.552;13.204;2024-02-21T01:52:59;16.20;99.90
25906;DHT22;13713;52.552;13.204;2024-02-21T01:55:25;16.20;99.90
25906;DHT22;13713;52.552;13.204;2024-02-21T01:57:55;16.20;99.90
25906;DHT22;13713;52.552;13.204;2024-02-21T02:00:21;16.20;99.90
25906;DHT22;13713;52.552;13.204;2024-02-21T02:02:47;16.20;99.90
25906;DHT22;13713;52.552;13.204;2024-02-21T02:05:13;16.20;99.90
25906;DHT22;13713;52.552;13.204;2024-02-21T02:07:38;16.20;99.90
25906;DHT22;13713;52.552;13.204;2024-02-21T02:10:05;16.20;99.90
25906;DHT22;13713;52.552;13.204;2024-02-21T02:12:30;16.10;99.90
25906;DHT22;13713;52.552;13.204;2024-02-21T02:15:03;16.10;99.90
25906;DHT22;13713;52.552;13.204;2024-02-21T02:17:30;16.10;99.90
25906;DHT22;13713;52.552;13.204;2024-02-21T02:19:56;16.10;99.90
25906;DHT22;13713;52.552;13.204;2024-02-21T02:22:41;16.10;99.90
25906;DHT22;13713;52.552;13.204;2024-02-21T02:25:07;16.20;99.90
25906;DHT22;13713;52.552;13.204;2024-02-21T02:27:41;16.20;99.90
25906;DHT22;13713;52.552;13.204;2024-02-21T02:30:10;16.20;99.90
25906;DHT22;13713;52.552;13.204;2024-02-21T02:32:35;16.10;99.90
25906;DHT22;13713;52.552;13.204;2024-02-21T02:35:01;16.10;99.90
25906;DHT22;13713;52.552;13.204;2024-02-21T02:37:27;16.10;99.90
25906;DHT22;13713;52.552;13.204;2024-02-21T02:39:52;16.10;99.90
25906;DHT22;13713;52.552;13.204;2024-02-21T02:42:18;16.10;99.90
25906;DHT22;13713;52.552;13.204;2024-02-21T02:44:44;16.10;99.90
25906;DHT22;13713;52.552;13.204;2024-02-21T02:47:09;16.10;99.90
25906;DHT22;13713;52.552;13.204;2024-02-21T02:49:35;16.20;99.90
25906;DHT22;13713;52.552;13.204;2024-02-21T02:52:00;16.10;99.90
25906;DHT22;13713;52.552;13.204;2024-02-21T02:54:26;16.10;99.90
25906;DHT22;13713;52.552;13.204;2024-02-21T02:56:52;16.10;99.90
25906;DHT22;13713;52.552;13.204;2024-02-21T02:59:18;16.10;99.90
25906;DHT22;13713;52.552;13.204;2024-02-21T03:01:43;16.10;99.90
25906;DHT22;13713;52.552;13.204;2024-02-21T03:04:09;16.00;99.90
25906;DHT22;13713;52.552;13.204;2024-02-21T03:06:35;16.10;99.90
25906;DHT22;13713;52.552;13.204;2024-02-21T03:09:01;16.00;99.90
25906;DHT22;13713;52.552;13.204;2024-02-21T03:11:27;16.00;99.90
25906;DHT22;13713;52.552;13.204;2024-02-21T03:13:55;16.10;99.90
25906;DHT22;13713;52.552;13.204;2024-02-21T03:16:22;16.00;99.90
25906;DHT22;13713;52.552;13.204;2024-02-21T03:18:47;16.00;99.90
25906;DHT22;13713;52.552;13.204;2024-02-21T03:21:14;16.00;99.90
25906;DHT22;13713;52.552;13.204;2024-02-21T03:23:39;15.90;99.90
25906;DHT22;13713;52.552;13.204;2024-02-21T03:26:05;16.00;99.90
25906;DHT22;13713;52.552;13.204;2024-02-21T03:28:31;16.00;99.90
25906;DHT22;13713;52.552;13.204;2024-02-21T03:30:56;16.00;99.90
25906;DHT22;13713;52.552;13.204;2024-02-21T03:33:22;16.00;99.90
25906;DHT22;13713;52.552;13.204;2024-02-21T03:35:48;16.00;99.90
25906;DHT22;13713;52.552;13.204;2024-02-21T03:38:14;16.10;99.90
25906;DHT22;13713;52.552;13.204;2024-02-21T03:40:40;16.00;99.90
25906;DHT22;13713;52.552;13.204;2024-02-21T03:43:05;16.00;99.90
25906;DHT22;13713;52.552;13.204;2024-02-21T03:45:31;16.00;99.90
25906;DHT22;13713;52.552;13.204;2024-02-21T03:47:56;16.00;99.90
25906;DHT22;13713;52.552;13.204;2024-02-21T03:50:22;16.00;99.90
25906;DHT22;13713;52.552;13.204;2024-02-21T03:52:48;16.00;99.90
25906;DHT22;13713;52.552;13.204;2024-02-21T03:55:13;16.00;99.90
25906;DHT22;13713;52.552;13.204;2024-02-21T03:57:39;16.00;99.90
25906;DHT22;13713;52.552;13.204;2024-02-21T04:00:05;16.00;99.90
25906;DHT22;13713;52.552;13.204;2024-02-21T04:02:36;16.10;99.90
25906;DHT22;13713;52.552;13.204;2024-02-21T04:05:02;16.00;99.90
25906;DHT22;13713;52.552;13.204;2024-02-21T04:07:27;16.00;99.90
25906;DHT22;13713;52.552;13.204;2024-02-21T04:09:53;16.00;99.90
25906;DHT22;13713;52.552;13.204;2024-02-21T04:12:19;16.00;99.90
25906;DHT22;13713;52.552;13.204;2024-02-21T04:14:45;16.00;99.90
25906;DHT22;13713;52.552;13.204;2024-02-21T04:17:10;16.00;99.90
25906;DHT22;13713;52.552;13.204;2024-02-21T04:19:36;16.00;99.90
25906;DHT22;13713;52.552;13.204;2024-02-21T04:22:02;16.00;99.90
25906;DHT22;13713;52.552;13.204;2024-02-21T04:24:27;16.00;99.90
25906;DHT22;13713;52.552;13.204;2024-02-21T04:26:53;16.00;99.90
25906;DHT22;13713;52.552;13.204;2024-02-21T04:29:18;16.00;99.90
25906;DHT22;13713;52.552;13.204;2024-02-21T04:31:44;16.00;99.90
25906;DHT22;13713;52.552;13.204;2024-02-21T04:34:10;16.00;99.90
25906;DHT22;13713;52.552;13.204;2024-02-21T04:36:36;15.90;99.90
25906;DHT22;13713;52.552;13.204;2024-02-21T04:39:02;16.00;99.90
25906;DHT22;13713;52.552;13.204;2024-02-21T04:41:27;16.00;99.90
25906;DHT22;13713;52.552;13.204;2024-02-21T04:43:53;16.00;99.90
25906;DHT22;13713;52.552;13.204;2024-02-21T04:46:18;16.00;99.90
25906;DHT22;13713;52.552;13.204;2024-02-21T04:48:44;16.00;99.90
25906;DHT22;13713;52.552;13.204;2024-02-21T04:51:11;16.00;99.90
25906;DHT22;13713;52.552;13.204;2024-02-21T04:53:36;16.00;99.90
25906;DHT22;13713;52.552;13.204;2024-02-21T04:56:02;15.90;99.90
25906;DHT22;13713;52.552;13.204;2024-02-21T04:58:28;16.00;99.90
25906;DHT22;13713;52.552;13.204;2024-02-21T05:00:54;16.00;99.90
25906;DHT22;13713;52.552;13.204;2024-02-21T05:03:20;16.00;99.90
25906;DHT22;13713;52.552;13.204;2024-02-21T05:05:47;16.00;99.90
25906;DHT22;13713;52.552;13.204;2024-02-21T05:08:12;16.00;99.90
25906;DHT22;13713;52.552;13.204;2024-02-21T05:10:38;16.00;99.90
25906;DHT22;13713;52.552;13.204;2024-02-21T05:13:03;15.90;99.90
25906;DHT22;13713;52.552;13.204;2024-02-21T05:15:29;16.00;99.90
25906;DHT22;13713;52.552;13.204;2024-02-21T05:17:55;16.00;99.90
25906;DHT22;13713;52.552;13.204;2024-02-21T05:20:21;15.90;99.90
25906;DHT22;13713;52.552;13.204;2024-02-21T05:22:46;16.00;99.90
25906;DHT22;13713;52.552;13.204;2024-02-21T05:25:12;15.90;99.90
25906;DHT22;13713;52.552;13.204;2024-02-21T05:27:38;15.90;99.90
25906;DHT22;13713;52.552;13.204;2024-02-21T05:30:04;15.90;99.90
25906;DHT22;13713;52.552;13.204;2024-02-21T05:32:31;15.90;99.90
25906;DHT22;13713;52.552;13.204;2024-02-21T05:34:57;15.90;99.90
25906;DHT22;13713;52.552;13.204;2024-02-21T05:37:23;15.90;99.90
25906;DHT22;13713;52.552;13.204;2024-02-21T05:39:49;15.90;99.90
25906;DHT22;13713;52.552;13.204;2024-02-21T05:42:15;16.00;99.90
25906;DHT22;13713;52.552;13.204;2024-02-21T05:44:40;16.10;99.90
25906;DHT22;13713;52.552;13.204;2024-02-21T05:47:06;16.20;99.90
25906;DHT22;13713;52.552;13.204;2024-02-21T05:49:35;16.20;99.90
25906;DHT22;13713;52.552;13.204;2024-02-21T05:52:01;16.30;99.90
25906;DHT22;13713;52.552;13.204;2024-02-21T05:54:27;16.40;99.90
25906;DHT22;13713;52.552;13.204;2024-02-21T05:56:52;16.50;99.90
25906;DHT22;13713;52.552;13.204;2024-02-21T05:59:18;16.40;99.90
25906;DHT22;13713;52.552;13.204;2024-02-21T06:01:44;16.50;99.90
25906;DHT22;13713;52.552;13.204;2024-02-21T06:04:10;16.60;99.90
25906;DHT22;13713;52.552;13.204;2024-02-21T06:06:35;16.60;99.90
25906;DHT22;13713;52.552;13.204;2024-02-21T06:09:01;16.70;99.90
25906;DHT22;13713;52.552;13.204;2024-02-21T06:11:28;16.80;99.90
25906;DHT22;13713;52.552;13.204;2024-02-21T06:13:54;16.80;99.90
25906;DHT22;13713;52.552;13.204;2024-02-21T06:16:19;16.90;99.90
25906;DHT22;13713;52.552;13.204;2024-02-21T06:18:45;16.90;99.90
25906;DHT22;13713;52.552;13.204;2024-02-21T06:21:11;16.90;99.90
25906;DHT22;13713;52.552;13.204;2024-02-21T06:23:37;17.00;99.90
25906;DHT22;13713;52.552;13.204;2024-02-21T06:26:03;17.10;99.90
25906;DHT22;13713;52.552;13.204;2024-02-21T06:28:29;17.10;99.90
25906;DHT22;13713;52.552;13.204;2024-02-21T06:30:54;17.10;99.90
25906;DHT22;13713;52.552;13.204;2024-02-21T06:33:20;17.20;99.90
25906;DHT22;13713;52.552;13.204;2024-02-21T06:35:50;17.20;99.90
25906;DHT22;13713;52.552;13.204;2024-02-21T06:38:18;17.20;99.90
25906;DHT22;13713;52.552;13.204;2024-02-21T06:40:44;17.30;98.90
25906;DHT22;13713;52.552;13.204;2024-02-21T06:43:16;17.30;98.90
25906;DHT22;13713;52.552;13.204;2024-02-21T06:45:41;17.40;99.90
25906;DHT22;13713;52.552;13.204;2024-02-21T06:48:07;17.40;98.90
25906;DHT22;13713;52.552;13.204;2024-02-21T06:50:33;17.40;99.70
25906;DHT22;13713;52.552;13.204;2024-02-21T06:52:59;17.50;99.90
25906;DHT22;13713;52.552;13.204;2024-02-21T06:55:25;17.50;99.00
25906;DHT22;13713;52.552;13.204;2024-02-21T06:57:50;17.60;99.20
25906;DHT22;13713;52.552;13.204;2024-02-21T07:00:16;17.60;97.80
25906;DHT22;13713;52.552;13.204;2024-02-21T07:02:42;17.70;99.90
25906;DHT22;13713;52.552;13.204;2024-02-21T07:05:08;17.50;94.90
25906;DHT22;13713;52.552;13.204;2024-02-21T07:07:34;17.30;94.30
25906;DHT22;13713;52.552;13.204;2024-02-21T07:10:00;17.60;95.80
25906;DHT22;13713;52.552;13.204;2024-02-21T07:12:26;17.80;96.30
25906;DHT22;13713;52.552;13.204;2024-02-21T07:14:52;18.10;96.50
25906;DHT22;13713;52.552;13.204;2024-02-21T07:17:17;18.20;96.20
25906;DHT22;13713;52.552;13.204;2024-02-21T07:19:43;18.40;96.70
25906;DHT22;13713;52.552;13.204;2024-02-21T07:22:08;18.50;96.30
25906;DHT22;13713;52.552;13.204;2024-02-21T07:24:34;18.60;96.60
25906;DHT22;13713;52.552;13.204;2024-02-21T07:27:00;18.70;97.20
25906;DHT22;13713;52.552;13.204;2024-02-21T07:29:30;18.70;97.20
25906;DHT22;13713;52.552;13.204;2024-02-21T07:31:56;18.60;97.10
25906;DHT22;13713;52.552;13.204;2024-02-21T07:34:22;18.40;98.30
25906;DHT22;13713;52.552;13.204;2024-02-21T07:36:48;18.30;99.30
25906;DHT22;13713;52.552;13.204;2024-02-21T07:39:13;18.30;99.80
25906;DHT22;13713;52.552;13.204;2024-02-21T07:41:39;18.20;99.90
25906;DHT22;13713;52.552;13.204;2024-02-21T07:44:06;18.20;99.90
25906;DHT22;13713;52.552;13.204;2024-02-21T07:46:32;18.20;99.90
25906;DHT22;13713;52.552;13.204;2024-02-21T07:48:58;18.10;99.90
25906;DHT22;13713;52.552;13.204;2024-02-21T07:51:27;18.10;99.90
25906;DHT22;13713;52.552;13.204;2024-02-21T07:53:53;18.10;99.90
25906;DHT22;13713;52.552;13.204;2024-02-21T07:56:19;18.10;99.90
25906;DHT22;13713;52.552;13.204;2024-02-21T07:58:44;18.10;99.90
25906;DHT22;13713;52.552;13.204;2024-02-21T08:01:10;18.10;99.90
25906;DHT22;13713;52.552;13.204;2024-02-21T08:03:36;18.10;99.90
25906;DHT22;13713;52.552;13.204;2024-02-21T08:06:03;18.10;99.90
25906;DHT22;13713;52.552;13.204;2024-02-21T08:08:29;18.20;99.90
25906;DHT22;13713;52.552;13.204;2024-02-21T08:10:54;18.20;99.90
25906;DHT22;13713;52.552;13.204;2024-02-21T08:13:20;18.20;99.90
25906;DHT22;13713;52.552;13.204;2024-02-21T08:15:46;18.20;99.90
25906;DHT22;13713;52.552;13.204;2024-02-21T08:18:12;18.20;99.90
25906;DHT22;13713;52.552;13.204;2024-02-21T08:20:37;18.30;99.90
25906;DHT22;13713;52.552;13.204;2024-02-21T08:23:03;18.20;99.90
25906;DHT22;13713;52.552;13.204;2024-02-21T08:25:29;18.20;99.90
25906;DHT22;13713;52.552;13.204;2024-02-21T08:27:58;18.30;99.90
25906;DHT22;13713;52.552;13.204;2024-02-21T08:30:24;18.30;99.90
25906;DHT22;13713;52.552;13.204;2024-02-21T08:32:50;18.30;99.90
25906;DHT22;13713;52.552;13.204;2024-02-21T08:35:16;18.30;99.90
25906;DHT22;13713;52.552;13.204;2024-02-21T08:37:45;18.40;99.90
25906;DHT22;13713;52.552;13.204;2024-02-21T08:40:13;18.40;99.90
25906;DHT22;13713;52.552;13.204;2024-02-21T08:42:43;18.40;99.90
25906;DHT22;13713;52.552;13.204;2024-02-21T08:45:10;18.40;99.90
25906;DHT22;13713;52.552;13.204;2024-02-21T08:47:35;18.40;99.90
25906;DHT22;13713;52.552;13.204;2024-02-21T08:50:04;18.40;99.90
25906;DHT22;13713;52.552;13.204;2024-02-21T08:52:31;18.40;99.90
25906;DHT22;13713;52.552;13.204;2024-02-21T08:54:57;18.50;99.90
25906;DHT22;13713;52.552;13.204;2024-02-21T08:57:23;18.50;99.90
25906;DHT22;13713;52.552;13.204;2024-02-21T08:59:48;18.50;99.90
25906;DHT22;13713;52.552;13.204;2024-02-21T09:02:14;18.60;99.90
25906;DHT22;13713;52.552;13.204;2024-02-21T09:04:43;18.50;99.90
25906;DHT22;13713;52.552;13.204;2024-02-21T09:07:12;18.60;99.90
25906;DHT22;13713;52.552;13.204;2024-02-21T09:09:38;18.60;99.90
25906;DHT22;13713;52.552;13.204;2024-02-21T09:12:07;18.60;99.90
25906;DHT22;13713;52.552;13.204;2024-02-21T09:14:34;18.60;99.90
25906;DHT22;13713;52.552;13.204;2024-02-21T09:17:00;18.60;99.90
25906;DHT22;13713;52.552;13.204;2024-02-21T09:19:25;18.60;99.90
25906;DHT22;13713;52.552;13.204;2024-02-21T09:21:51;18.70;99.90
25906;DHT22;13713;52.552;13.204;2024-02-21T09:24:17;18.70;99.90
25906;DHT22;13713;52.552;13.204;2024-02-21T09:26:43;18.70;99.90
25906;DHT22;13713;52.552;13.204;2024-02-21T09:29:09;18.80;99.90
25906;DHT22;13713;52.552;13.204;2024-02-21T09:31:35;18.80;99.90
25906;DHT22;13713;52.552;13.204;2024-02-21T09:34:00;18.90;99.90
25906;DHT22;13713;52.552;13.204;2024-02-21T09:36:27;18.90;99.90
25906;DHT22;13713;52.552;13.204;2024-02-21T09:38:53;18.90;99.90
25906;DHT22;13713;52.552;13.204;2024-02-21T09:41:26;19.00;99.90
25906;DHT22;13713;52.552;13.204;2024-02-21T09:43:55;19.00;99.90
25906;DHT22;13713;52.552;13.204;2024-02-21T09:46:40;18.90;99.90
25906;DHT22;13713;52.552;13.204;2024-02-21T09:49:17;19.00;99.90
25906;DHT22;13713;52.552;13.204;2024-02-21T09:51:48;19.00;99.90
25906;DHT22;13713;52.552;13.204;2024-02-21T09:54:15;19.10;99.90
25906;DHT22;13713;52.552;13.204;2024-02-21T09:56:41;19.10;99.90
25906;DHT22;13713;52.552;13.204;2024-02-21T09:59:07;19.10;99.90
25906;DHT22;13713;52.552;13.204;2024-02-21T10:01:33;19.10;99.90
25906;DHT22;13713;52.552;13.204;2024-02-21T10:03:58;19.20;99.90
25906;DHT22;13713;52.552;13.204;2024-02-21T10:06:24;19.20;99.90
25906;DHT22;13713;52.552;13.204;2024-02-21T10:08:54;19.20;99.90
25906;DHT22;13713;52.552;13.204;2024-02-21T10:11:25;19.20;99.90
25906;DHT22;13713;52.552;13.204;2024-02-21T10:14:02;19.30;99.90
25906;DHT22;13713;52.552;13.204;2024-02-21T10:16:28;19.30;99.90
25906;DHT22;13713;52.552;13.204;2024-02-21T10:18:54;19.30;99.90
25906;DHT22;13713;52.552;13.204;2024-02-21T10:21:20;19.30;99.90
25906;DHT22;13713;52.552;13.204;2024-02-21T10:23:49;19.40;99.90
25906;DHT22;13713;52.552;13.204;2024-02-21T10:26:18;19.40;99.90
25906;DHT22;13713;52.552;13.204;2024-02-21T10:28:45;19.50;99.90
25906;DHT22;13713;52.552;13.204;2024-02-21T10:31:25;19.50;99.90
25906;DHT22;13713;52.552;13.204;2024-02-21T10:33:55;19.50;99.90
25906;DHT22;13713;52.552;13.204;2024-02-21T10:36:21;19.60;99.90
25906;DHT22;13713;52.552;13.204;2024-02-21T10:38:47;19.50;99.90
25906;DHT22;13713;52.552;13.204;2024-02-21T10:41:14;19.60;99.90
25906;DHT22;13713;52.552;13.204;2024-02-21T10:43:41;19.60;99.90
25906;DHT22;13713;52.552;13.204;2024-02-21T10:46:09;19.60;99.90
25906;DHT22;13713;52.552;13.204;2024-02-21T10:48:46;19.60;99.90
25906;DHT22;13713;52.552;13.204;2024-02-21T10:51:16;19.70;99.90
25906;DHT22;13713;52.552;13.204;2024-02-21T10:56:28;19.70;99.90
25906;DHT22;13713;52.552;13.204;2024-02-21T10:58:54;19.70;99.90
25906;DHT22;13713;52.552;13.204;2024-02-21T11:01:22;19.70;99.90
25906;DHT22;13713;52.552;13.204;2024-02-21T11:03:51;19.70;99.90
25906;DHT22;13713;52.552;13.204;2024-02-21T11:06:19;19.70;99.90
25906;DHT22;13713;52.552;13.204;2024-02-21T11:08:45;19.80;99.90
25906;DHT22;13713;52.552;13.204;2024-02-21T11:11:13;19.80;99.90
25906;DHT22;13713;52.552;13.204;2024-02-21T11:13:44;19.80;99.90
25906;DHT22;13713;52.552;13.204;2024-02-21T11:16:20;19.80;99.90
25906;DHT22;13713;52.552;13.204;2024-02-21T11:18:46;19.80;99.90
25906;DHT22;13713;52.552;13.204;2024-02-21T11:21:12;19.80;99.90
25906;DHT22;13713;52.552;13.204;2024-02-21T11:23:38;19.90;99.90
25906;DHT22;13713;52.552;13.204;2024-02-21T11:26:18;19.90;99.90
25906;DHT22;13713;52.552;13.204;2024-02-21T11:28:45;19.90;99.90
25906;DHT22;13713;52.552;13.204;2024-02-21T11:31:21;19.90;99.90
25906;DHT22;13713;52.552;13.204;2024-02-21T11:33:47;20.00;99.90
25906;DHT22;13713;52.552;13.204;2024-02-21T11:36:24;19.90;99.90
25906;DHT22;13713;52.552;13.204;2024-02-21T11:38:51;20.00;99.90
25906;DHT22;13713;52.552;13.204;2024-02-21T11:41:16;20.00;99.90
25906;DHT22;13713;52.552;13.204;2024-02-21T11:43:42;20.00;99.90
25906;DHT22;13713;52.552;13.204;2024-02-21T11:46:08;20.00;99.90
25906;DHT22;13713;52.552;13.204;2024-02-21T11:48:34;20.00;99.90
25906;DHT22;13713;52.552;13.204;2024-02-21T11:51:00;20.00;99.90
25906;DHT22;13713;52.552;13.204;2024-02-21T11:53:26;20.00;99.90
25906;DHT22;13713;52.552;13.204;2024-02-21T11:55:56;20.00;99.90
25906;DHT22;13713;52.552;13.204;2024-02-21T11:58:22;20.00;99.90
25906;DHT22;13713;52.552;13.204;2024-02-21T12:00:48;20.10;99.90
25906;DHT22;13713;52.552;13.204;2024-02-21T12:03:14;20.10;99.90
25906;DHT22;13713;52.552;13.204;2024-02-21T12:05:41;20.10;99.90
25906;DHT22;13713;52.552;13.204;2024-02-21T12:08:07;20.10;99.90
25906;DHT22;13713;52.552;13.204;2024-02-21T12:10:35;20.20;99.90
25906;DHT22;13713;52.552;13.204;2024-02-21T12:13:10;20.20;99.90
25906;DHT22;13713;52.552;13.204;2024-02-21T12:15:38;20.20;99.90
25906;DHT22;13713;52.552;13.204;2024-02-21T12:18:04;20.20;99.90
25906;DHT22;13713;52.552;13.204;2024-02-21T12:20:30;20.20;99.90
25906;DHT22;13713;52.552;13.204;2024-02-21T12:23:00;20.20;99.90
25906;DHT22;13713;52.552;13.204;2024-02-21T12:25:26;20.30;99.90
25906;DHT22;13713;52.552;13.204;2024-02-21T12:27:52;20.30;99.90
25906;DHT22;13713;52.552;13.204;2024-02-21T12:30:19;20.30;99.90
25906;DHT22;13713;52.552;13.204;2024-02-21T12:32:45;20.30;99.90
25906;DHT22;13713;52.552;13.204;2024-02-21T12:35:11;20.40;99.90
25906;DHT22;13713;52.552;13.204;2024-02-21T12:37:37;20.40;99.90
25906;DHT22;13713;52.552;13.204;2024-02-21T12:40:05;20.40;99.90
25906;DHT22;13713;52.552;13.204;2024-02-21T12:42:33;20.50;99.90
25906;DHT22;13713;52.552;13.204;2024-02-21T12:45:00;20.60;99.90
25906;DHT22;13713;52.552;13.204;2024-02-21T12:47:27;20.60;99.90
25906;DHT22;13713;52.552;13.204;2024-02-21T12:49:53;20.60;99.90
25906;DHT22;13713;52.552;13.204;2024-02-21T12:52:19;20.60;99.90
25906;DHT22;13713;52.552;13.204;2024-02-21T12:54:44;20.60;99.90
25906;DHT22;13713;52.552;13.204;2024-02-21T12:57:10;20.50;99.90
25906;DHT22;13713;52.552;13.204;2024-02-21T12:59:36;20.60;99.90
25906;DHT22;13713;52.552;13.204;2024-02-21T13:02:02;20.50;99.90
25906;DHT22;13713;52.552;13.204;2024-02-21T13:04:28;20.50;99.90
25906;DHT22;13713;52.552;13.204;2024-02-21T13:06:53;20.40;99.90
25906;DHT22;13713;52.552;13.204;2024-02-21T13:09:21;20.20;99.90
25906;DHT22;13713;52.552;13.204;2024-02-21T13:11:47;20.10;99.90
25906;DHT22;13713;52.552;13.204;2024-02-21T13:14:13;20.00;98.90
25906;DHT22;13713;52.552;13.204;2024-02-21T13:16:38;19.90;99.70
25906;DHT22;13713;52.552;13.204;2024-02-21T13:19:08;19.80;97.40
25906;DHT22;13713;52.552;13.204;2024-02-21T13:21:37;19.70;97.10
25906;DHT22;13713;52.552;13.204;2024-02-21T13:24:03;19.70;99.90
25906;DHT22;13713;52.552;13.204;2024-02-21T13:26:28;19.90;99.90
25906;DHT22;13713;52.552;13.204;2024-02-21T13:28:55;20.00;99.90
25906;DHT22;13713;52.552;13.204;2024-02-21T13:31:21;20.10;99.90
25906;DHT22;13713;52.552;13.204;2024-02-21T13:33:46;20.10;99.90
25906;DHT22;13713;52.552;13.204;2024-02-21T13:36:12;20.20;99.90
25906;DHT22;13713;52.552;13.204;2024-02-21T13:38:38;20.20;99.90
25906;DHT22;13713;52.552;13.204;2024-02-21T13:41:07;20.70;99.90
25906;DHT22;13713;52.552;13.204;2024-02-21T13:43:33;20.60;99.90
25906;DHT22;13713;52.552;13.204;2024-02-21T13:46:02;20.50;99.90
25906;DHT22;13713;52.552;13.204;2024-02-21T13:48:30;20.40;99.90
25906;DHT22;13713;52.552;13.204;2024-02-21T13:50:56;20.40;99.90
25906;DHT22;13713;52.552;13.204;2024-02-21T13:53:22;20.40;99.90
25906;DHT22;13713;52.552;13.204;2024-02-21T13:55:49;20.40;99.90
25906;DHT22;13713;52.552;13.204;2024-02-21T13:58:16;20.40;99.90
25906;DHT22;13713;52.552;13.204;2024-02-21T14:00:42;20.40;99.90
25906;DHT22;13713;52.552;13.204;2024-02-21T14:03:09;20.40;99.90
25906;DHT22;13713;52.552;13.204;2024-02-21T14:05:35;20.40;99.90
25906;DHT22;13713;52.552;13.204;2024-02-21T14:08:00;20.40;99.90
25906;DHT22;13713;52.552;13.204;2024-02-21T14:10:26;20.40;99.90
25906;DHT22;13713;52.552;13.204;2024-02-21T14:12:53;20.40;99.90
25906;DHT22;13713;52.552;13.204;2024-02-21T14:15:18;20.50;99.90
25906;DHT22;13713;52.552;13.204;2024-02-21T14:17:44;20.50;99.90
25906;DHT22;13713;52.552;13.204;2024-02-21T14:20:10;20.50;99.90
25906;DHT22;13713;52.552;13.204;2024-02-21T14:22:36;20.60;99.90
25906;DHT22;13713;52.552;13.204;2024-02-21T14:25:03;20.70;99.90
25906;DHT22;13713;52.552;13.204;2024-02-21T14:27:32;20.70;99.90
25906;DHT22;13713;52.552;13.204;2024-02-21T14:29:58;20.70;99.90
25906;DHT22;13713;52.552;13.204;2024-02-21T14:32:23;20.70;99.90
25906;DHT22;13713;52.552;13.204;2024-02-21T14:34:49;20.70;99.90
25906;DHT22;13713;52.552;13.204;2024-02-21T14:37:15;20.60;99.90
25906;DHT22;13713;52.552;13.204;2024-02-21T14:39:41;20.60;99.90
25906;DHT22;13713;52.552;13.204;2024-02-21T14:42:07;20.60;99.90
25906;DHT22;13713;52.552;13.204;2024-02-21T14:44:35;20.50;99.90
25906;DHT22;13713;52.552;13.204;2024-02-21T14:47:02;20.50;99.90
25906;DHT22;13713;52.552;13.204;2024-02-21T14:49:29;20.40;99.90
25906;DHT22;13713;52.552;13.204;2024-02-21T14:51:55;20.30;99.90
25906;DHT22;13713;52.552;13.204;2024-02-21T14:54:20;20.30;99.90
25906;DHT22;13713;52.552;13.204;2024-02-21T14:56:46;20.30;99.90
25906;DHT22;13713;52.552;13.204;2024-02-21T14:59:12;20.30;99.90
25906;DHT22;13713;52.552;13.204;2024-02-21T15:01:38;20.20;99.90
25906;DHT22;13713;52.552;13.204;2024-02-21T15:04:04;20.20;99.90
25906;DHT22;13713;52.552;13.204;2024-02-21T15:06:30;20.10;99.90
25906;DHT22;13713;52.552;13.204;2024-02-21T15:08:57;20.10;99.90
25906;DHT22;13713;52.552;13.204;2024-02-21T15:11:23;20.10;99.90
25906;DHT22;13713;52.552;13.204;2024-02-21T15:13:49;20.00;99.90